Time;durP1;ratioP1;P1;durP2;ratioP2;P2;SDS_P1;SDS_P2;PMS_P1;PMS_P2;Temp;Humidity;BMP_temperature;BMP_pressure;BME280_temperature;BME280_humidity;BME280_pressure;Samples;Min_cycle;Max_cycle;Signal;HPM_P1;HPM_P2
2022/03/12 00:01:53;;;;;;;9.55;5.13;;;1.80;58.00;;;;;;5030509;28;20396;-65
2022/03/12 00:04:21;;;;;;;8.85;4.72;;;1.80;57.90;;;;;;5022750;28;20120;-65
2022/03/12 00:06:49;;;;;;;8.95;4.75;;;1.80;57.60;;;;;;5023712;28;20046;-65
2022/03/12 00:09:16;;;;;;;9.52;5.47;;;1.80;57.60;;;;;;5029011;28;20477;-66
2022/03/12 00:11:51;;;;;;;9.63;4.78;;;1.80;57.80;;;;;;5029896;28;20041;-66
2022/03/12 00:14:22;;;;;;;10.23;4.30;;;1.80;58.10;;;;;;5031507;28;20055;-63
2022/03/12 00:16:55;;;;;;;9.73;4.40;;;1.70;58.10;;;;;;5029727;28;20046;-64
2022/03/12 00:19:24;;;;;;;10.63;4.72;;;1.70;58.20;;;;;;5030253;28;20057;-65
2022/03/12 00:21:52;;;;;;;8.60;4.30;;;1.60;58.20;;;;;;5030412;28;20465;-66
2022/03/12 00:24:19;;;;;;;8.18;4.15;;;1.60;58.50;;;;;;5030708;28;20059;-66
2022/03/12 00:26:48;;;;;;;9.70;5.05;;;1.50;58.60;;;;;;5030945;28;20479;-65
2022/03/12 00:29:16;;;;;;;11.27;4.88;;;1.50;58.30;;;;;;5031081;28;20049;-66
2022/03/12 00:31:48;;;;;;;11.73;5.72;;;1.50;58.30;;;;;;5028900;28;20076;-65
2022/03/12 00:34:17;;;;;;;10.90;4.32;;;1.40;58.10;;;;;;5034654;28;20049;-65
2022/03/12 00:36:48;;;;;;;9.85;5.05;;;1.40;58.70;;;;;;5033497;28;20053;-65
2022/03/12 00:39:16;;;;;;;11.52;4.82;;;1.40;58.80;;;;;;5030895;28;20561;-65
2022/03/12 00:41:44;;;;;;;10.93;5.20;;;1.40;58.80;;;;;;5031359;28;20084;-65
2022/03/12 00:44:13;;;;;;;11.63;5.60;;;1.40;58.90;;;;;;5032099;28;20497;-65
2022/03/12 00:46:41;;;;;;;13.35;5.75;;;1.30;58.80;;;;;;5031687;28;20149;-65
2022/03/12 00:49:08;;;;;;;13.00;5.82;;;1.40;58.70;;;;;;5030815;28;20041;-65
2022/03/12 00:51:38;;;;;;;11.55;5.95;;;1.30;58.70;;;;;;5038103;28;20159;-65
2022/03/12 00:54:06;;;;;;;10.23;4.90;;;1.30;58.60;;;;;;5031098;28;20050;-65
2022/03/12 00:56:33;;;;;;;8.48;4.80;;;1.30;58.80;;;;;;5023449;28;20433;-65
2022/03/12 00:59:01;;;;;;;12.70;4.57;;;1.30;58.70;;;;;;5030446;28;20507;-65
2022/03/12 01:01:28;;;;;;;10.55;4.75;;;1.30;58.40;;;;;;5030172;28;20057;-65
2022/03/12 01:03:58;;;;;;;11.75;5.28;;;1.30;58.70;;;;;;5028896;28;20099;-65
2022/03/12 01:06:25;;;;;;;8.27;4.63;;;1.30;58.50;;;;;;5031027;28;20084;-65
2022/03/12 01:08:52;;;;;;;8.77;5.00;;;1.30;58.70;;;;;;5031117;28;20077;-65
2022/03/12 01:11:20;;;;;;;11.65;4.55;;;1.20;58.60;;;;;;5030495;28;20583;-65
2022/03/12 01:13:47;;;;;;;7.78;4.28;;;1.20;59.00;;;;;;5032351;28;20554;-65
2022/03/12 01:16:15;;;;;;;7.93;4.47;;;1.20;59.00;;;;;;5030178;28;20544;-63
2022/03/12 01:18:43;;;;;;;13.43;5.68;;;1.20;59.20;;;;;;5030096;28;20049;-64
2022/03/12 01:21:19;;;;;;;11.27;4.38;;;1.10;59.40;;;;;;5031191;28;20060;-64
2022/03/12 01:23:49;;;;;;;8.25;3.80;;;1.10;59.50;;;;;;5031324;28;20046;-64
2022/03/12 01:26:18;;;;;;;11.13;4.40;;;1.10;59.10;;;;;;5031662;28;20455;-65
2022/03/12 01:28:46;;;;;;;7.47;4.00;;;1.00;59.20;;;;;;5030850;28;20050;-65
2022/03/12 01:31:15;;;;;;;9.77;4.47;;;0.90;59.20;;;;;;5031056;28;20525;-65
2022/03/12 01:33:42;;;;;;;8.45;4.32;;;0.90;59.80;;;;;;5030880;28;20456;-65
2022/03/12 01:36:10;;;;;;;8.80;4.75;;;0.80;59.80;;;;;;5038717;28;20041;-65
2022/03/12 01:38:48;;;;;;;12.10;4.97;;;0.80;60.20;;;;;;5030756;28;20045;-65
2022/03/12 01:41:20;;;;;;;9.73;4.68;;;0.70;60.30;;;;;;5031088;28;20049;-64
2022/03/12 01:43:49;;;;;;;9.50;4.43;;;0.70;60.60;;;;;;5039232;28;20048;-65
2022/03/12 01:46:16;;;;;;;8.85;4.07;;;0.70;60.30;;;;;;5030110;28;20139;-65
2022/03/12 01:48:46;;;;;;;11.20;4.70;;;0.70;60.40;;;;;;5038985;28;20045;-65
2022/03/12 01:51:15;;;;;;;10.30;4.47;;;0.70;60.60;;;;;;5039435;28;20049;-65
2022/03/12 01:53:43;;;;;;;8.68;4.68;;;0.60;60.60;;;;;;5030512;28;20552;-65
2022/03/12 01:56:11;;;;;;;9.45;4.72;;;0.60;60.80;;;;;;5029530;28;20372;-64
2022/03/12 01:58:45;;;;;;;8.63;4.70;;;0.50;61.10;;;;;;5016366;28;20045;-65
2022/03/12 02:01:14;;;;;;;11.60;4.43;;;0.50;61.10;;;;;;5025058;28;20497;-64
2022/03/12 02:03:43;;;;;;;9.77;4.72;;;0.50;61.30;;;;;;5029913;28;20103;-65
2022/03/12 02:06:19;;;;;;;8.75;4.55;;;0.40;61.20;;;;;;5038995;28;20041;-65
2022/03/12 02:08:48;;;;;;;8.77;4.80;;;0.40;61.60;;;;;;5038685;28;20544;-64
2022/03/12 02:11:25;;;;;;;7.63;4.18;;;0.40;61.40;;;;;;5046233;28;20053;-65
2022/03/12 02:14:02;;;;;;;10.13;4.93;;;0.30;61.50;;;;;;5042836;28;20057;-64
2022/03/12 02:16:30;;;;;;;10.25;4.68;;;0.30;61.80;;;;;;5047971;28;20037;-65
2022/03/12 02:18:57;;;;;;;13.13;5.30;;;0.30;62.00;;;;;;5042735;28;20061;-65
2022/03/12 02:21:34;;;;;;;9.13;5.20;;;0.20;62.20;;;;;;5036430;28;20056;-64
2022/03/12 02:24:10;;;;;;;13.13;4.40;;;0.20;62.10;;;;;;5043397;28;20128;-65
2022/03/12 02:26:41;;;;;;;11.88;4.68;;;0.20;62.20;;;;;;5040818;28;20139;-65
2022/03/12 02:29:12;;;;;;;10.00;4.80;;;0.20;62.30;;;;;;5035415;28;20485;-65
2022/03/12 02:31:43;;;;;;;10.07;4.93;;;0.10;62.30;;;;;;5018861;28;20558;-65
2022/03/12 02:34:11;;;;;;;9.40;5.05;;;0.10;63.10;;;;;;5032908;28;20496;-65
2022/03/12 02:36:40;;;;;;;8.07;4.40;;;0.10;62.90;;;;;;5037024;28;20092;-65
2022/03/12 02:39:08;;;;;;;9.65;4.95;;;0.10;62.80;;;;;;5038761;28;20443;-64
2022/03/12 02:41:35;;;;;;;10.25;5.50;;;0.10;62.50;;;;;;5048664;28;20060;-65
2022/03/12 02:44:03;;;;;;;12.68;5.38;;;0.10;62.70;;;;;;5033134;28;20052;-64
2022/03/12 02:46:32;;;;;;;10.68;4.68;;;0.10;63.10;;;;;;5036288;28;20120;-65
2022/03/12 02:49:01;;;;;;;10.02;4.97;;;0.10;63.10;;;;;;5035448;28;20503;-65
2022/03/12 02:51:28;;;;;;;12.00;5.00;;;0.10;62.90;;;;;;5033556;28;20041;-65
2022/03/12 02:53:56;;;;;;;9.07;5.13;;;0.10;63.30;;;;;;5033762;28;20048;-65
2022/03/12 02:56:24;;;;;;;9.13;4.72;;;0.10;63.10;;;;;;5037670;28;20041;-65
2022/03/12 02:58:52;;;;;;;9.77;5.25;;;0.10;63.50;;;;;;5047241;28;20099;-65
2022/03/12 03:01:19;;;;;;;11.15;5.07;;;0.10;63.50;;;;;;5032800;28;20525;-65
2022/03/12 03:03:47;;;;;;;10.38;5.10;;;0.10;63.30;;;;;;5040087;28;20483;-64
2022/03/12 03:06:15;;;;;;;9.07;4.97;;;0.10;63.40;;;;;;5040745;28;20048;-64
2022/03/12 03:08:44;;;;;;;11.13;4.90;;;0.10;63.70;;;;;;5032850;28;20037;-65
2022/03/12 03:11:16;;;;;;;11.10;4.88;;;0.10;63.50;;;;;;5033384;28;20044;-65
2022/03/12 03:13:45;;;;;;;9.10;4.72;;;0.10;63.70;;;;;;5033073;28;20531;-65
2022/03/12 03:16:24;;;;;;;10.93;5.38;;;0.10;63.90;;;;;;5034471;28;20053;-65
2022/03/12 03:18:53;;;;;;;13.13;5.40;;;0.10;63.70;;;;;;5032572;28;20045;-65
2022/03/12 03:21:26;;;;;;;10.15;4.90;;;0.10;63.50;;;;;;5032981;28;20046;-65
2022/03/12 03:23:54;;;;;;;14.02;5.45;;;0.10;63.50;;;;;;5039586;28;20041;-65
2022/03/12 03:26:38;;;;;;;9.85;5.18;;;0.00;63.70;;;;;;5031620;28;20133;-65
2022/03/12 03:29:06;;;;;;;10.63;4.85;;;0.00;63.80;;;;;;5035015;28;20050;-65
2022/03/12 03:31:36;;;;;;;9.02;5.22;;;0.00;63.70;;;;;;5031279;28;20047;-65
2022/03/12 03:34:03;;;;;;;13.93;6.00;;;0.00;64.00;;;;;;5031749;28;20480;-65
2022/03/12 03:36:31;;;;;;;9.15;4.70;;;0.00;64.20;;;;;;5033113;28;20077;-65
2022/03/12 03:38:58;;;;;;;12.52;5.20;;;0.00;64.30;;;;;;5033554;28;20047;-64
2022/03/12 03:41:25;;;;;;;8.40;4.75;;;0.00;64.40;;;;;;5031855;28;20132;-65
2022/03/12 03:43:53;;;;;;;12.07;5.10;;;-0.10;64.30;;;;;;5032955;28;20057;-64
2022/03/12 03:46:22;;;;;;;8.93;5.03;;;-0.10;64.90;;;;;;5032460;28;20492;-64
2022/03/12 03:48:51;;;;;;;12.20;4.97;;;-0.10;64.80;;;;;;5032421;28;20049;-65
2022/03/12 03:51:20;;;;;;;9.60;5.30;;;-0.10;64.50;;;;;;5034254;28;20060;-65
2022/03/12 03:53:49;;;;;;;10.88;5.45;;;-0.10;64.70;;;;;;5032484;28;20053;-65
2022/03/12 03:56:18;;;;;;;17.85;5.47;;;-0.10;64.80;;;;;;5034072;28;20042;-64
2022/03/12 03:58:45;;;;;;;11.07;5.20;;;-0.10;64.70;;;;;;5019534;28;20423;-64
2022/03/12 04:01:18;;;;;;;11.27;5.10;;;-0.10;65.00;;;;;;5030327;28;20132;-64
2022/03/12 04:03:48;;;;;;;12.40;5.15;;;-0.10;64.90;;;;;;5018124;28;20049;-64
2022/03/12 04:06:21;;;;;;;12.73;5.78;;;-0.10;64.90;;;;;;5020961;28;20052;-65
2022/03/12 04:08:49;;;;;;;12.40;5.65;;;-0.10;64.90;;;;;;5030922;28;20124;-64
2022/03/12 04:11:23;;;;;;;9.50;5.03;;;-0.10;64.80;;;;;;5029214;28;20467;-64
2022/03/12 04:13:52;;;;;;;9.35;4.90;;;-0.10;65.10;;;;;;5041667;28;20037;-64
2022/03/12 04:16:21;;;;;;;9.57;5.00;;;0.00;65.20;;;;;;5045297;28;20053;-64
2022/03/12 04:18:49;;;;;;;10.35;5.28;;;0.00;65.00;;;;;;5044149;28;20515;-64
2022/03/12 04:21:20;;;;;;;9.63;4.97;;;-0.10;65.10;;;;;;5040022;28;20091;-64
2022/03/12 04:23:49;;;;;;;;;;;-0.10;65.00;;;;;;5032885;28;20045;-62
2022/03/12 04:26:16;;;;;;;12.52;5.47;;;-0.10;65.10;;;;;;5038895;28;20403;-65
2022/03/12 04:28:43;;;;;;;11.27;5.30;;;-0.10;65.50;;;;;;5039470;28;20399;-65
2022/03/12 04:31:11;;;;;;;11.15;5.40;;;-0.10;65.10;;;;;;5033190;28;20478;-65
2022/03/12 04:33:39;;;;;;;11.43;5.40;;;-0.10;64.90;;;;;;5044965;28;20543;-65
2022/03/12 04:36:09;;;;;;;11.65;5.28;;;0.00;64.90;;;;;;5039966;28;20052;-64
2022/03/12 04:38:37;;;;;;;9.35;4.95;;;0.00;65.00;;;;;;5026419;28;20189;-65
2022/03/12 04:41:06;;;;;;;11.35;4.88;;;-0.10;65.10;;;;;;5038034;28;20037;-64
2022/03/12 04:43:34;;;;;;;9.63;5.28;;;-0.10;65.10;;;;;;5044392;28;20049;-66
2022/03/12 04:46:02;;;;;;;10.55;5.32;;;-0.10;65.40;;;;;;5042713;28;20037;-64
2022/03/12 04:48:30;;;;;;;12.88;5.60;;;-0.10;65.30;;;;;;5033978;28;20130;-64
2022/03/12 04:50:58;;;;;;;8.90;4.63;;;-0.10;65.30;;;;;;5036895;28;20567;-64
2022/03/12 04:53:26;;;;;;;10.80;5.65;;;-0.20;65.30;;;;;;5031144;28;20042;-64
2022/03/12 04:55:55;;;;;;;10.52;5.28;;;-0.20;65.40;;;;;;5033501;28;20479;-64
2022/03/12 04:58:22;;;;;;;10.40;5.30;;;-0.20;65.40;;;;;;5043911;28;20048;-64
2022/03/12 05:00:50;;;;;;;11.65;5.80;;;-0.20;65.40;;;;;;5030942;28;20052;-65
2022/03/12 05:03:21;;;;;;;9.15;5.05;;;-0.20;65.60;;;;;;5032023;28;20463;-65
2022/03/12 05:05:53;;;;;;;10.23;4.97;;;-0.20;65.80;;;;;;5051538;28;20045;-65
2022/03/12 05:08:28;;;;;;;10.95;5.35;;;-0.20;65.60;;;;;;5022322;28;20046;-65
2022/03/12 05:10:57;;;;;;;11.63;5.97;;;-0.20;65.60;;;;;;5026183;28;20037;-65
2022/03/12 05:13:30;;;;;;;9.65;5.18;;;-0.20;65.60;;;;;;5016306;28;20115;-64
2022/03/12 05:16:04;;;;;;;10.35;5.82;;;-0.20;65.60;;;;;;5033068;28;20128;-64
2022/03/12 05:18:40;;;;;;;12.07;5.78;;;-0.20;65.80;;;;;;5043288;28;20053;-65
2022/03/12 05:21:08;;;;;;;9.90;5.47;;;-0.10;65.90;;;;;;5025650;28;20515;-64
2022/03/12 05:23:37;;;;;;;13.60;5.35;;;-0.10;65.60;;;;;;5032206;28;20041;-65
2022/03/12 05:26:05;;;;;;;11.48;5.20;;;-0.20;65.70;;;;;;5032089;28;20579;-65
2022/03/12 05:28:33;;;;;;;9.95;5.40;;;-0.10;66.00;;;;;;5038539;28;20472;-64
2022/03/12 05:31:08;;;;;;;10.43;5.15;;;-0.10;65.80;;;;;;5025683;28;20150;-65
2022/03/12 05:33:36;;;;;;;9.85;5.60;;;-0.20;65.70;;;;;;5037791;28;20095;-65
2022/03/12 05:36:04;;;;;;;9.00;4.82;;;-0.10;65.90;;;;;;5029539;28;20219;-65
2022/03/12 05:38:36;;;;;;;10.80;5.75;;;0.00;65.90;;;;;;5045191;28;20548;-64
2022/03/12 05:41:11;;;;;;;9.90;4.97;;;0.00;65.90;;;;;;5037771;28;20089;-65
2022/03/12 05:43:46;;;;;;;12.75;5.18;;;0.00;65.80;;;;;;5045407;28;20492;-65
2022/03/12 05:46:17;;;;;;;12.52;5.53;;;0.10;65.80;;;;;;5032386;28;20115;-65
2022/03/12 05:48:47;;;;;;;9.45;5.03;;;0.10;65.50;;;;;;5037040;28;20087;-64
2022/03/12 05:51:14;;;;;;;12.10;5.70;;;0.10;65.50;;;;;;5039769;28;20516;-65
2022/03/12 05:53:44;;;;;;;10.55;5.25;;;0.10;66.50;;;;;;5045220;28;20485;-64
2022/03/12 05:56:12;;;;;;;9.82;5.72;;;0.20;65.80;;;;;;5034005;28;20045;-64
2022/03/12 05:58:40;;;;;;;10.43;5.68;;;0.20;65.70;;;;;;5027747;28;20469;-65
2022/03/12 06:01:08;;;;;;;10.48;5.28;;;0.30;65.50;;;;;;5036190;28;20056;-64
2022/03/12 06:03:36;;;;;;;9.07;4.90;;;0.30;65.40;;;;;;5031603;28;20045;-65
2022/03/12 06:06:03;;;;;;;10.98;5.18;;;0.40;65.20;;;;;;5035328;28;20438;-65
2022/03/12 06:08:33;;;;;;;12.68;5.28;;;0.50;65.00;;;;;;5032191;28;20084;-65
2022/03/12 06:11:01;;;;;;;10.75;5.55;;;0.50;64.70;;;;;;5029565;28;20491;-64
2022/03/12 06:13:30;;;;;;;10.45;5.72;;;0.60;64.40;;;;;;5047120;28;20542;-65
2022/03/12 06:16:00;;;;;;;9.85;5.15;;;0.70;64.80;;;;;;5031385;28;20053;-65
2022/03/12 06:18:30;;;;;;;9.43;5.38;;;0.70;64.60;;;;;;5045502;28;20053;-65
2022/03/12 06:20:58;;;;;;;10.70;6.20;;;0.80;64.60;;;;;;5048865;28;20071;-65
2022/03/12 06:23:28;;;;;;;9.52;5.10;;;0.80;64.20;;;;;;5019894;28;20045;-65
2022/03/12 06:25:55;;;;;;;13.05;6.75;;;0.90;64.10;;;;;;5023691;28;20052;-65
2022/03/12 06:28:23;;;;;;;10.32;5.40;;;1.00;64.60;;;;;;5037398;28;20033;-65
2022/03/12 06:30:53;;;;;;;11.50;6.05;;;1.10;64.00;;;;;;5028524;28;20051;-65
2022/03/12 06:33:22;;;;;;;10.95;5.45;;;1.30;64.10;;;;;;5035885;28;20041;-65
2022/03/12 06:35:52;;;;;;;11.38;5.45;;;1.30;63.60;;;;;;5037169;28;20076;-65
2022/03/12 06:38:21;;;;;;;13.00;6.18;;;1.50;63.10;;;;;;5040912;28;20113;-65
2022/03/12 06:40:49;;;;;;;8.48;5.13;;;1.50;62.60;;;;;;5040944;28;20439;-64
2022/03/12 06:43:19;;;;;;;13.68;5.43;;;1.60;62.70;;;;;;5040639;28;20099;-64
2022/03/12 06:45:49;;;;;;;11.25;5.47;;;1.70;62.50;;;;;;5029304;28;20393;-64
2022/03/12 06:48:17;;;;;;;10.27;4.97;;;1.70;62.40;;;;;;5026642;28;20047;-65
2022/03/12 06:50:45;;;;;;;8.93;5.18;;;1.80;62.20;;;;;;5024672;28;20068;-65
2022/03/12 06:53:13;;;;;;;9.32;4.80;;;1.80;62.20;;;;;;5040279;28;20042;-64
2022/03/12 06:55:42;;;;;;;9.15;5.28;;;1.90;62.20;;;;;;5029293;28;20053;-63
2022/03/12 06:58:11;;;;;;;12.43;5.53;;;1.90;62.00;;;;;;5029843;28;20478;-66
2022/03/12 07:00:39;;;;;;;8.85;4.78;;;2.00;61.60;;;;;;5032796;28;20567;-64
2022/03/12 07:03:07;;;;;;;11.65;6.53;;;2.10;61.10;;;;;;5032138;28;20068;-64
2022/03/12 07:05:35;;;;;;;10.80;5.13;;;2.10;61.10;;;;;;5040106;28;20358;-65
2022/03/12 07:08:02;;;;;;;12.15;5.97;;;2.10;61.10;;;;;;5037079;28;20105;-64
2022/03/12 07:10:30;;;;;;;12.02;6.72;;;2.00;61.30;;;;;;5032146;28;20471;-65
2022/03/12 07:12:57;;;;;;;11.35;6.35;;;2.10;61.90;;;;;;5023804;28;20050;-65
2022/03/12 07:15:25;;;;;;;12.02;5.95;;;2.10;61.90;;;;;;5031340;28;20489;-65
2022/03/12 07:17:54;;;;;;;10.35;5.80;;;2.10;61.20;;;;;;5031349;28;20522;-66
2022/03/12 07:20:22;;;;;;;15.32;7.40;;;2.20;61.30;;;;;;5031438;28;20410;-66
2022/03/12 07:22:50;;;;;;;10.02;5.60;;;2.20;61.30;;;;;;5035405;28;20045;-65
2022/03/12 07:25:17;;;;;;;9.07;5.15;;;2.20;60.70;;;;;;5033062;28;20042;-65
2022/03/12 07:27:45;;;;;;;8.68;5.32;;;2.20;60.90;;;;;;5033991;28;20052;-65
2022/03/12 07:30:14;;;;;;;10.82;5.50;;;2.20;61.10;;;;;;5028311;28;20127;-64
2022/03/12 07:32:43;;;;;;;11.13;5.45;;;2.20;60.80;;;;;;5031312;28;20050;-65
2022/03/12 07:35:13;;;;;;;12.10;5.78;;;2.20;60.80;;;;;;5033950;28;20034;-65
2022/03/12 07:37:41;;;;;;;10.93;5.43;;;2.40;60.70;;;;;;5033983;28;20051;-65
2022/03/12 07:40:10;;;;;;;12.30;5.70;;;2.40;60.70;;;;;;5034071;28;20595;-65
2022/03/12 07:42:38;;;;;;;10.65;5.88;;;2.50;60.20;;;;;;5033710;28;20073;-65
2022/03/12 07:45:07;;;;;;;11.05;5.55;;;2.50;60.30;;;;;;5031994;28;20111;-65
2022/03/12 07:47:35;;;;;;;8.98;4.78;;;2.60;60.40;;;;;;5033028;28;20195;-64
2022/03/12 07:50:06;;;;;;;8.82;4.90;;;2.60;60.00;;;;;;5023219;28;20045;-65
2022/03/12 07:52:33;;;;;;;9.52;4.63;;;2.60;59.80;;;;;;5029908;28;20065;-64
2022/03/12 07:55:01;;;;;;;10.30;5.25;;;2.70;60.00;;;;;;5031641;28;20045;-65
2022/03/12 07:57:29;;;;;;;12.65;5.07;;;2.80;59.40;;;;;;5032151;28;20479;-65
2022/03/12 07:59:58;;;;;;;9.15;5.20;;;2.80;58.80;;;;;;5033883;28;20583;-65
2022/03/12 08:02:25;;;;;;;9.65;4.85;;;2.90;58.60;;;;;;5033514;28;20116;-65
2022/03/12 08:04:53;;;;;;;9.02;4.85;;;2.90;58.70;;;;;;5033101;28;20073;-65
2022/03/12 08:07:21;;;;;;;8.98;4.97;;;3.00;58.70;;;;;;5033995;28;20056;-65
2022/03/12 08:09:55;;;;;;;9.25;5.15;;;3.00;58.90;;;;;;5036096;28;20084;-65
2022/03/12 08:12:30;;;;;;;17.88;8.60;;;3.10;58.90;;;;;;5019889;28;20122;-65
2022/03/12 08:15:02;;;;;;;12.18;6.82;;;3.30;58.30;;;;;;5033834;28;20045;-65
2022/03/12 08:17:31;;;;;;;10.65;5.40;;;3.30;58.30;;;;;;5020006;28;20045;-65
2022/03/12 08:19:58;;;;;;;8.55;5.28;;;3.40;57.90;;;;;;5033399;28;20501;-64
2022/03/12 08:22:27;;;;;;;11.27;5.38;;;3.50;58.10;;;;;;5033787;28;20152;-65
2022/03/12 08:24:54;;;;;;;9.13;5.13;;;3.60;58.40;;;;;;5033041;28;20073;-64
2022/03/12 08:27:23;;;;;;;14.00;7.00;;;3.60;58.00;;;;;;5033238;28;20038;-65
2022/03/12 08:29:51;;;;;;;14.40;6.07;;;3.70;58.20;;;;;;5033386;28;20504;-66
2022/03/12 08:32:18;;;;;;;9.85;5.90;;;3.90;57.70;;;;;;5035735;28;20408;-66
2022/03/12 08:34:46;;;;;;;12.00;6.25;;;4.00;57.40;;;;;;5031557;28;20092;-64
2022/03/12 08:37:13;;;;;;;11.60;5.38;;;4.10;57.50;;;;;;5031485;28;20424;-66
2022/03/12 08:39:40;;;;;;;8.68;5.07;;;4.20;57.20;;;;;;5042431;28;20504;-67
2022/03/12 08:42:08;;;;;;;9.63;5.25;;;4.40;57.00;;;;;;5038988;28;20056;-66
2022/03/12 08:44:37;;;;;;;8.07;4.93;;;4.50;57.00;;;;;;5015992;28;20108;-67
2022/03/12 08:47:04;;;;;;;9.23;4.97;;;4.70;56.90;;;;;;5039559;28;20041;-65
2022/03/12 08:49:32;;;;;;;12.02;5.78;;;4.70;56.40;;;;;;5041761;28;20514;-66
2022/03/12 08:51:59;;;;;;;7.35;4.63;;;4.80;56.50;;;;;;5031871;28;20120;-65
2022/03/12 08:54:27;;;;;;;9.77;5.22;;;4.90;56.50;;;;;;5031834;28;20183;-65
2022/03/12 08:56:54;;;;;;;9.50;4.60;;;5.10;56.00;;;;;;5032400;28;20049;-65
2022/03/12 08:59:22;;;;;;;10.43;5.07;;;5.20;55.70;;;;;;5031376;28;20041;-65
2022/03/12 09:01:49;;;;;;;10.07;4.82;;;5.40;55.80;;;;;;5028510;28;20046;-65
2022/03/12 09:04:17;;;;;;;9.35;5.10;;;5.40;55.00;;;;;;5021125;28;20045;-65
2022/03/12 09:06:45;;;;;;;8.20;4.85;;;5.40;55.40;;;;;;5031455;28;20042;-65
2022/03/12 09:09:13;;;;;;;10.07;5.70;;;5.60;55.40;;;;;;5031856;28;20045;-66
2022/03/12 09:11:40;;;;;;;10.50;5.72;;;5.80;55.10;;;;;;5030843;28;20064;-66
2022/03/12 09:14:08;;;;;;;10.23;5.13;;;5.90;54.90;;;;;;5031455;28;20042;-66
2022/03/12 09:16:36;;;;;;;8.77;5.00;;;6.00;54.80;;;;;;5032113;28;20046;-67
2022/03/12 09:19:04;;;;;;;9.85;5.45;;;6.10;54.10;;;;;;5017416;28;20404;-67
2022/03/12 09:21:31;;;;;;;9.18;4.35;;;6.30;54.00;;;;;;5031566;28;20500;-65
2022/03/12 09:23:59;;;;;;;9.35;4.57;;;6.30;53.80;;;;;;5034259;28;20037;-66
2022/03/12 09:26:26;;;;;;;9.32;4.88;;;6.50;53.70;;;;;;5034958;28;20136;-66
2022/03/12 09:28:53;;;;;;;9.95;5.03;;;6.70;53.50;;;;;;5034239;28;20381;-66
2022/03/12 09:31:22;;;;;;;6.90;3.90;;;6.80;52.80;;;;;;5030040;28;20038;-67
2022/03/12 09:33:49;;;;;;;8.05;4.53;;;7.00;52.10;;;;;;5034559;28;20111;-68
2022/03/12 09:36:16;;;;;;;8.00;4.50;;;7.00;51.60;;;;;;5031126;28;20041;-66
2022/03/12 09:38:44;;;;;;;8.65;4.55;;;7.20;51.50;;;;;;5031148;28;20049;-66
2022/03/12 09:41:11;;;;;;;9.55;4.88;;;7.30;51.20;;;;;;5023563;28;20057;-65
2022/03/12 09:43:38;;;;;;;6.75;4.32;;;7.40;50.80;;;;;;5030886;28;20504;-65
2022/03/12 09:46:06;;;;;;;9.65;5.13;;;7.50;50.80;;;;;;5033949;28;20112;-67
2022/03/12 09:48:33;;;;;;;10.93;4.80;;;7.60;50.70;;;;;;5033896;28;20050;-67
2022/03/12 09:51:01;;;;;;;10.40;5.40;;;7.70;50.90;;;;;;5035098;28;20049;-67
2022/03/12 09:53:28;;;;;;;8.20;4.60;;;7.80;50.60;;;;;;5033980;28;20504;-65
2022/03/12 09:55:55;;;;;;;12.38;4.45;;;7.90;51.60;;;;;;5031761;28;20033;-66
2022/03/12 09:58:23;;;;;;;7.82;4.47;;;8.00;50.70;;;;;;5029988;28;20515;-66
2022/03/12 10:00:50;;;;;;;7.95;4.63;;;8.00;50.70;;;;;;5026832;28;20069;-66
2022/03/12 10:03:17;;;;;;;10.05;5.28;;;8.10;50.30;;;;;;5033134;28;20107;-66
2022/03/12 10:05:45;;;;;;;9.07;5.00;;;8.10;50.50;;;;;;5031917;28;20515;-66
2022/03/12 10:08:12;;;;;;;8.48;4.95;;;8.10;50.30;;;;;;5029237;28;20037;-65
2022/03/12 10:10:39;;;;;;;10.18;5.40;;;8.30;50.20;;;;;;5030177;28;20057;-67
2022/03/12 10:13:07;;;;;;;10.15;5.45;;;8.40;50.00;;;;;;5038600;28;20048;-67
2022/03/12 10:15:34;;;;;;;8.80;4.82;;;8.40;49.80;;;;;;5042059;28;20124;-66
2022/03/12 10:18:02;;;;;;;11.07;5.40;;;8.40;49.80;;;;;;5048059;28;20037;-67
2022/03/12 10:20:30;;;;;;;9.32;5.20;;;8.60;49.80;;;;;;5045423;28;20365;-66
2022/03/12 10:22:57;;;;;;;9.63;5.22;;;8.70;49.80;;;;;;5038720;28;20051;-67
2022/03/12 10:25:25;;;;;;;10.30;5.50;;;8.90;50.10;;;;;;5032229;28;20054;-66
2022/03/12 10:27:52;;;;;;;12.38;5.95;;;9.20;49.70;;;;;;5043903;28;20069;-66
2022/03/12 10:30:19;;;;;;;14.70;5.53;;;9.40;49.60;;;;;;5027106;28;20100;-66
2022/03/12 10:32:48;;;;;;;10.60;5.32;;;9.70;49.50;;;;;;5039159;28;20041;-68
2022/03/12 10:35:19;;;;;;;10.10;5.97;;;9.90;48.70;;;;;;5042992;28;20045;-66
2022/03/12 10:37:49;;;;;;;8.65;5.13;;;10.10;48.60;;;;;;5039328;28;20072;-66
2022/03/12 10:40:20;;;;;;;10.25;5.72;;;10.40;48.40;;;;;;5029478;28;20050;-66
2022/03/12 10:42:57;;;;;;;11.40;5.47;;;10.50;47.80;;;;;;5033723;28;20076;-66
2022/03/12 10:45:31;;;;;;;9.23;5.97;;;10.70;47.70;;;;;;5039744;28;20547;-66
2022/03/12 10:48:03;;;;;;;12.85;6.63;;;10.70;48.10;;;;;;5041049;28;20443;-65
2022/03/12 10:50:34;;;;;;;10.07;6.20;;;10.90;47.60;;;;;;5032075;28;20061;-66
2022/03/12 10:53:06;;;;;;;15.27;6.13;;;11.10;47.60;;;;;;5042277;28;20125;-66
2022/03/12 10:55:42;;;;;;;9.18;5.45;;;11.20;47.30;;;;;;5029747;28;20061;-65
2022/03/12 10:58:12;;;;;;;11.10;6.32;;;11.30;47.40;;;;;;5041134;28;20056;-64
2022/03/12 11:01:06;;;;;;;19.17;10.35;;;11.60;47.30;;;;;;5038444;28;20128;-65
2022/03/12 11:03:37;;;;;;;8.68;5.43;;;11.90;46.90;;;;;;5035054;28;20411;-65
2022/03/12 11:06:05;;;;;;;8.50;5.60;;;12.10;46.70;;;;;;5030605;28;20054;-67
2022/03/12 11:08:34;;;;;;;8.25;5.20;;;12.10;46.20;;;;;;5032071;28;20056;-67
2022/03/12 11:11:11;;;;;;;9.25;5.70;;;12.10;46.70;;;;;;5045887;28;20487;-66
2022/03/12 11:13:48;;;;;;;10.00;5.65;;;12.40;46.50;;;;;;5042616;28;20041;-65
2022/03/12 11:16:30;;;;;;;8.45;5.07;;;12.50;46.10;;;;;;5029427;28;20044;-65
2022/03/12 11:19:00;;;;;;;10.63;5.70;;;13.00;46.20;;;;;;5034237;28;20500;-65
2022/03/12 11:21:50;;;;;;;9.40;5.85;;;13.10;45.10;;;;;;5029599;28;20114;-67
2022/03/12 11:24:25;;;;;;;10.23;6.55;;;13.10;45.60;;;;;;5040934;28;20053;-67
2022/03/12 11:26:58;;;;;;;12.52;6.32;;;13.20;45.80;;;;;;5038147;28;20100;-67
2022/03/12 11:29:28;;;;;;;11.57;6.03;;;13.40;45.40;;;;;;5029987;28;20072;-67
2022/03/12 11:32:00;;;;;;;16.27;9.48;;;13.50;45.30;;;;;;5040195;28;20060;-67
2022/03/12 11:34:32;;;;;;;;;;;13.50;45.50;;;;;;5048531;28;20045;-67
2022/03/12 11:37:04;;;;;;;9.87;5.83;;;13.60;45.50;;;;;;5036060;28;20327;-66
2022/03/12 11:39:39;;;;;;;11.18;6.03;;;13.80;45.70;;;;;;5039473;28;20869;-66
2022/03/12 11:42:22;;;;;;;9.68;5.75;;;14.30;45.20;;;;;;5041685;28;20199;-65
2022/03/12 11:44:57;;;;;;;10.77;5.82;;;14.40;44.60;;;;;;5033420;28;20041;-65
2022/03/12 11:47:30;;;;;;;10.82;6.97;;;14.60;44.70;;;;;;5042575;28;20041;-65
2022/03/12 11:50:00;;;;;;;12.95;6.88;;;14.80;44.60;;;;;;5037323;28;20038;-66
2022/03/12 11:52:29;;;;;;;10.82;6.50;;;15.00;44.60;;;;;;5037038;28;20421;-65
2022/03/12 11:54:58;;;;;;;11.23;6.35;;;15.50;44.20;;;;;;5033942;28;20689;-64
2022/03/12 11:57:30;;;;;;;11.65;5.88;;;15.80;43.80;;;;;;5043872;28;20071;-66
2022/03/12 11:59:59;;;;;;;17.25;9.80;;;16.00;43.50;;;;;;5022605;28;20049;-65
2022/03/12 12:02:35;;;;;;;14.13;9.77;;;16.20;43.70;;;;;;5030731;28;20037;-65
2022/03/12 12:05:10;;;;;;;11.93;7.13;;;16.50;43.30;;;;;;5041946;28;20041;-64
2022/03/12 12:07:39;;;;;;;11.63;6.93;;;16.90;43.10;;;;;;5047104;28;20507;-66
2022/03/12 12:10:08;;;;;;;11.75;7.30;;;16.70;42.30;;;;;;5025202;28;20059;-65
2022/03/12 12:12:44;;;;;;;11.55;6.88;;;16.90;42.50;;;;;;5043789;28;20076;-64
2022/03/12 12:15:17;;;;;;;11.60;6.90;;;17.00;42.50;;;;;;5039780;28;20047;-66
2022/03/12 12:17:46;;;;;;;12.80;6.47;;;17.20;42.80;;;;;;5045023;28;20549;-66
2022/03/12 12:20:15;;;;;;;10.20;6.60;;;17.60;42.00;;;;;;5045910;28;20107;-66
2022/03/12 12:22:43;;;;;;;11.57;6.43;;;17.80;42.50;;;;;;5030280;28;20527;-65
2022/03/12 12:25:12;;;;;;;10.98;6.60;;;18.20;41.80;;;;;;5048562;28;20554;-65
2022/03/12 12:27:51;;;;;;;11.15;6.47;;;18.20;41.30;;;;;;5043128;28;20476;-65
2022/03/12 12:30:43;;;;;;;9.65;6.18;;;18.30;41.50;;;;;;5047344;28;20700;-66
2022/03/12 12:33:25;;;;;;;8.88;5.97;;;18.50;41.30;;;;;;5029938;28;20060;-66
2022/03/12 12:36:09;;;;;;;9.75;5.72;;;18.60;41.10;;;;;;5007075;28;20045;-66
2022/03/12 12:38:38;;;;;;;11.32;6.53;;;18.90;40.80;;;;;;5032795;28;20565;-66
2022/03/12 12:41:06;;;;;;;9.95;5.88;;;19.30;40.90;;;;;;5034781;28;20045;-66
2022/03/12 12:43:37;;;;;;;10.82;6.43;;;19.70;40.40;;;;;;5035876;28;20265;-67
2022/03/12 12:46:17;;;;;;;11.75;7.75;;;20.00;40.40;;;;;;5033007;28;20065;-66
2022/03/12 12:48:48;;;;;;;17.65;9.85;;;20.30;39.80;;;;;;5035551;28;20421;-66
2022/03/12 12:51:16;;;;;;;9.95;7.00;;;20.60;39.80;;;;;;5033207;28;20055;-64
2022/03/12 12:53:45;;;;;;;9.48;6.55;;;21.10;39.90;;;;;;5034706;28;20053;-66
2022/03/12 12:56:18;;;;;;;11.07;6.68;;;21.40;38.80;;;;;;5037450;28;20050;-65
2022/03/12 12:58:52;;;;;;;10.20;6.70;;;21.90;38.80;;;;;;5017852;28;20048;-66
2022/03/12 13:01:32;;;;;;;11.80;6.82;;;23.10;37.80;;;;;;5033254;28;20041;-66